Flight Track Log - Related Links

Times and Time Zones

All times are in EDT time to prevent confusion due to time zone crossing. See the N325P flight status page for this flight to view local times or setup timezone preferences in your user account.

Time Position Orientation Groundspeed Altitude Reporting Facility
EDT Latitude Longitude Course Direction KTS MPH feet Rate Location/Type
Tue 12:01:36 PM 43.5778 -110.7508 216° Southwest 155 178 7,000  Level Salt Lake Center
Tue 12:02:38 PM 43.5439 -110.7731 205° Southwest 136 157 7,600 629 Climbing Salt Lake Center
Tue 12:03:40 PM 43.5078 -110.7989 207° Southwest 141 162 8,300 677 Climbing Salt Lake Center
Tue 12:04:42 PM 43.4731 -110.8275 211° Southwest 144 166 9,000 629 Climbing Salt Lake Center
Tue 12:05:00 PM 43.3144 -110.9127 206° Southwest  Level FlightAware Approximate
Tue 12:05:44 PM 43.4286 -110.8547 204° Southwest 145 167 9,600  Level Salt Lake Center
Tue 12:06:00 PM 43.2672 -110.9441 206° Southwest  Level FlightAware Approximate
Tue 12:06:46 PM 43.3883 -110.8797 204° Southwest 151 174 10,200  Level Salt Lake Center
Tue 12:07:00 PM 43.2214 -110.9787 216° Southwest  Level FlightAware Approximate
Tue 12:07:48 PM 43.3486 -110.9022 202° Southwest 154 177 10,900  Level Salt Lake Center
Tue 12:08:50 PM 43.3097 -110.9250 203° Southwest 153 176 11,400 581 Climbing Salt Lake Center
Tue 12:09:52 PM 43.2719 -110.9511 207° Southwest 152 175 12,100 581 Climbing Salt Lake Center
Tue 12:10:54 PM 43.2331 -110.9756 205° Southwest 154 177 12,600 581 Climbing Salt Lake Center
Tue 12:11:56 PM 43.2000 -111.0206 225° Southwest 140 161 13,300 581 Climbing Salt Lake Center
Tue 12:12:58 PM 43.1714 -111.0611 226° Southwest 144 166 13,800 435 Climbing Salt Lake Center
Tue 12:14:00 PM 43.1436 -111.1014 227° Southwest 147 169 14,200 435 Climbing Salt Lake Center
Tue 12:15:02 PM 43.1161 -111.1431 228° Southwest 147 169 14,700 484 Climbing Salt Lake Center
Tue 12:16:04 PM 43.0894 -111.1861 230° Southwest 147 169 15,200 532 Climbing Salt Lake Center
Tue 12:17:06 PM 43.0625 -111.2289 229° Southwest 148 170 15,800 581 Climbing Salt Lake Center
Tue 12:18:08 PM 43.0356 -111.2722 230° Southwest 148 170 16,400 484 Climbing Salt Lake Center
Tue 12:19:10 PM 43.0028 -111.3194 227° Southwest 145 167 16,800 432 Climbing Salt Lake Center
Tue 12:20:13 PM 42.9742 -111.3633 228° Southwest 149 171 17,300 384 Climbing Salt Lake Center
Tue 12:21:15 PM 42.9414 -111.4008 220° Southwest 153 176 17,600 242 Climbing Salt Lake Center
Tue 12:22:17 PM 42.9125 -111.4431 227° Southwest 153 176 17,800 97 Climbing Salt Lake Center
Tue 12:23:19 PM 42.8850 -111.4869 229° Southwest 152 175 17,800 97 Level Salt Lake Center
Tue 12:24:21 PM 42.8561 -111.5297 227° Southwest 153 176 18,000 97 Climbing Salt Lake Center
Tue 12:25:23 PM 42.8181 -111.5831 226° Southwest 164 189 18,000  Level Salt Lake Center
Tue 12:26:25 PM 42.7836 -111.6275 223° Southwest 171 197 18,000  Level Salt Lake Center
Tue 12:27:27 PM 42.7447 -111.6719 220° Southwest 176 203 18,000  Level Salt Lake Center
Tue 12:28:29 PM 42.7089 -111.7206 225° Southwest 176 203 18,000  Level Salt Lake Center
Tue 12:29:31 PM 42.6769 -111.7697 229° Southwest 175 201 18,000  Level Salt Lake Center
Tue 12:30:33 PM 42.6447 -111.8194 229° Southwest 175 201 18,000  Level Salt Lake Center
Tue 12:31:35 PM 42.6136 -111.8700 230° Southwest 175 201 18,000  Level Salt Lake Center
Tue 12:32:37 PM 42.5814 -111.9192 228° Southwest 174 200 18,000  Level Salt Lake Center
Tue 12:33:39 PM 42.5414 -111.9775 227° Southwest 176 203 18,000  Level Salt Lake Center
Tue 12:34:41 PM 42.5072 -112.0256 226° Southwest 177 204 18,000  Level Salt Lake Center
Tue 12:35:43 PM 42.4731 -112.0694 223° Southwest 173 199 18,000  Level Salt Lake Center
Tue 12:36:45 PM 42.4369 -112.1186 225° Southwest 181 208 18,000  Level Salt Lake Center
Tue 12:37:47 PM 42.4017 -112.1653 224° Southwest 180 207 18,000  Level Salt Lake Center
Tue 12:38:49 PM 42.3664 -112.2158 227° Southwest 182 209 18,000  Level Salt Lake Center
Tue 12:40:00 PM 42.3153 -112.2654 226° Southwest  Level FlightAware Approximate
Tue 12:40:53 PM 42.2892 -112.3261 226° Southwest 187 215 18,000  Level Salt Lake Center
Tue 12:41:55 PM 42.2542 -112.3736 225° Southwest 180 207 18,000  Level Salt Lake Center
Tue 12:42:58 PM 42.2200 -112.4233 227° Southwest 181 208 18,000  Level Salt Lake Center
Tue 12:43:59 PM 42.1847 -112.4733 226° Southwest 184 212 18,000  Level Salt Lake Center
Tue 12:45:01 PM 42.1450 -112.5356 229° Southwest 183 211 18,000  Level Salt Lake Center
Tue 12:46:04 PM 42.1147 -112.5886 232° Southwest 180 207 18,000  Level Salt Lake Center
Tue 12:47:06 PM 42.0847 -112.6417 233° Southwest 179 206 18,000  Level Salt Lake Center
Tue 12:48:08 PM 42.0544 -112.6975 234° Southwest 182 209 18,000  Level Salt Lake Center
Tue 12:49:10 PM 42.0236 -112.7511 232° Southwest 181 208 18,000  Level Salt Lake Center
Tue 12:50:12 PM 41.9939 -112.8042 233° Southwest 180 207 18,000  Level Salt Lake Center
Tue 12:51:14 PM 41.9556 -112.8681 231° Southwest 183 211 18,000  Level Salt Lake Center
Tue 12:52:15 PM 41.9236 -112.9192 230° Southwest 181 208 18,000  Level Salt Lake Center
Tue 12:53:17 PM 41.8922 -112.9719 231° Southwest 182 209 18,000  Level Salt Lake Center
Tue 12:54:19 PM 41.8603 -113.0233 230° Southwest 180 207 18,000  Level Salt Lake Center
Tue 12:55:21 PM 41.8272 -113.0772 231° Southwest 184 212 18,000  Level Salt Lake Center
Tue 12:56:23 PM 41.7947 -113.1300 230° Southwest 185 213 18,000  Level Salt Lake Center
Tue 12:57:25 PM 41.7564 -113.1944 231° Southwest 184 212 18,000  Level Salt Lake Center
Tue 12:58:27 PM 41.7231 -113.2481 230° Southwest 186 214 18,000  Level Salt Lake Center
Tue 12:59:29 PM 41.6908 -113.3036 232° Southwest 189 217 18,000  Level Salt Lake Center
Tue 01:00:31 PM 41.6578 -113.3572 230° Southwest 187 215 18,000  Level Salt Lake Center
Tue 01:01:33 PM 41.6256 -113.4119 232° Southwest 187 215 18,000  Level Salt Lake Center
Tue 01:02:35 PM 41.5936 -113.4672 232° Southwest 189 217 18,000  Level Salt Lake Center
Tue 01:03:37 PM 41.5547 -113.5303 231° Southwest 186 214 18,000  Level Salt Lake Center
Tue 01:04:39 PM 41.5231 -113.5819 231° Southwest 184 212 18,000  Level Salt Lake Center
Tue 01:05:41 PM 41.4903 -113.6353 231° Southwest 184 212 18,000  Level Salt Lake Center
Tue 01:06:43 PM 41.4539 -113.6894 228° Southwest 189 217 18,000  Level Salt Lake Center
Tue 01:07:45 PM 41.4228 -113.7419 232° Southwest 186 214 18,000  Level Salt Lake Center
Tue 01:08:47 PM 41.3889 -113.7967 230° Southwest 188 216 18,000  Level Salt Lake Center
Tue 01:09:49 PM 41.3478 -113.8594 229° Southwest 187 215 18,000  Level Salt Lake Center
Tue 01:10:51 PM 41.3122 -113.9100 227° Southwest 187 215 18,000  Level Salt Lake Center
Tue 01:11:53 PM 41.2756 -113.9594 225° Southwest 187 215 18,000  Level Salt Lake Center
Tue 01:12:55 PM 41.2419 -114.0094 228° Southwest 184 212 18,000  Level Salt Lake Center
Tue 01:13:57 PM 41.2056 -114.0561 224° Southwest 182 209 18,000  Level Salt Lake Center
Tue 01:14:59 PM 41.1669 -114.1039 223° Southwest 186 214 18,000  Level Salt Lake Center
Tue 01:16:01 PM 41.1231 -114.1619 225° Southwest 187 215 18,000  Level Salt Lake Center
Tue 01:17:03 PM 41.0861 -114.2103 225° Southwest 187 215 18,000  Level Salt Lake Center
Tue 01:18:05 PM 41.0497 -114.2583 225° Southwest 186 214 18,000  Level Salt Lake Center
Tue 01:19:07 PM 41.0136 -114.3069 225° Southwest 185 213 18,000  Level Salt Lake Center
Tue 01:20:08 PM 40.9772 -114.3569 226° Southwest 187 215 18,000  Level Salt Lake Center
Tue 01:21:10 PM 40.9403 -114.4061 225° Southwest 188 216 18,000  Level Salt Lake Center
Tue 01:22:12 PM 40.9050 -114.4589 229° Southwest 185 213 18,000  Level Salt Lake Center
Tue 01:23:14 PM 40.8633 -114.5131 225° Southwest 185 213 18,000  Level Salt Lake Center
Tue 01:24:16 PM 40.8292 -114.5617 227° Southwest 187 215 18,000  Level Salt Lake Center
Tue 01:25:18 PM 40.7869 -114.6147 224° Southwest 187 215 18,000  Level Salt Lake Center
Tue 01:26:20 PM 40.7528 -114.6608 226° Southwest 187 215 18,000  Level Salt Lake Center
Tue 01:27:23 PM 40.7153 -114.7108 225° Southwest 190 219 18,000  Level Salt Lake Center
Tue 01:28:25 PM 40.6706 -114.7694 225° Southwest 190 219 18,000  Level Salt Lake Center
Tue 01:29:27 PM 40.6325 -114.8200 225° Southwest 190 219 18,000  Level Salt Lake Center
Tue 01:30:29 PM 40.5964 -114.8672 225° Southwest 192 221 18,000  Level Salt Lake Center
Tue 01:31:31 PM 40.5544 -114.9217 225° Southwest 190 219 18,000  Level Salt Lake Center
Tue 01:32:33 PM 40.5175 -114.9692 224° Southwest 192 221 18,000  Level Salt Lake Center
Tue 01:33:35 PM 40.4744 -115.0244 224° Southwest 193 222 18,000  Level Salt Lake Center
Tue 01:34:37 PM 40.4392 -115.0719 226° Southwest 191 220 18,000  Level Salt Lake Center
Tue 01:35:39 PM 40.4019 -115.1194 224° Southwest 194 223 18,000  Level Salt Lake Center
Tue 01:36:41 PM 40.3578 -115.1747 224° Southwest 195 224 18,000  Level Salt Lake Center
Tue 01:37:43 PM 40.3197 -115.2236 224° Southwest 198 228 18,000  Level Salt Lake Center
Tue 01:38:45 PM 40.2756 -115.2808 225° Southwest 199 229 18,000  Level Salt Lake Center
Tue 01:39:47 PM 40.2392 -115.3294 226° Southwest 198 228 18,000  Level Salt Lake Center
Tue 01:40:49 PM 40.1953 -115.3856 224° Southwest 197 227 18,000  Level Salt Lake Center
Tue 01:41:51 PM 40.1586 -115.4347 226° Southwest 197 227 18,000  Level Salt Lake Center
Tue 01:42:53 PM 40.1153 -115.4911 225° Southwest 197 227 18,000  Level Salt Lake Center
Tue 01:43:55 PM 40.0761 -115.5392 223° Southwest 199 229 18,000  Level Salt Lake Center
Tue 01:44:57 PM 40.0317 -115.5936 223° Southwest 197 227 18,000  Level Salt Lake Center
Tue 01:45:59 PM 39.9933 -115.6411 224° Southwest 198 228 18,000  Level Salt Lake Center
Tue 01:47:01 PM 39.9478 -115.6714 207° Southwest 194 223 18,000  Level Salt Lake Center
Tue 01:48:03 PM 39.8978 -115.7200 217° Southwest 197 227 18,000  Level Salt Lake Center
Tue 01:49:05 PM 39.8572 -115.7639 220° Southwest 197 227 18,000  Level Salt Lake Center
Tue 01:50:07 PM 39.8111 -115.8158 221° Southwest 196 226 18,000  Level Salt Lake Center
Tue 01:51:09 PM 39.7697 -115.8636 222° Southwest 203 234 18,000  Level Salt Lake Center
Tue 01:52:11 PM 39.7236 -115.9136 220° Southwest 197 227 18,000  Level Salt Lake Center
Tue 01:53:13 PM 39.6844 -115.9556 219° Southwest 193 222 18,000  Level Salt Lake Center
Tue 01:54:15 PM 39.6358 -116.0019 216° Southwest 193 222 18,000  Level Salt Lake Center
Tue 01:55:17 PM 39.5947 -116.0442 218° Southwest 194 223 18,000  Level Salt Lake Center
Tue 01:56:20 PM 39.5475 -116.0881 216° Southwest 189 217 18,000  Level Salt Lake Center
Tue 01:57:22 PM 39.5058 -116.1294 217° Southwest 193 222 18,000  Level Salt Lake Center
Tue 01:58:25 PM 39.4647 -116.1700 217° Southwest 194 223 18,000  Level Salt Lake Center
Tue 01:59:26 PM 39.4175 -116.2153 217° Southwest 190 219 18,000  Level Salt Lake Center
Tue 02:00:28 PM 39.3764 -116.2578 219° Southwest 194 223 18,000  Level Salt Lake Center
Tue 02:01:30 PM 39.3294 -116.3014 216° Southwest 189 217 18,000  Level Salt Lake Center
Tue 02:02:32 PM 39.2892 -116.3453 220° Southwest 194 223 18,000  Level Salt Lake Center
Tue 02:03:34 PM 39.2425 -116.3944 219° Southwest 194 223 18,000  Level Salt Lake Center
Tue 02:04:36 PM 39.2050 -116.4428 225° Southwest 196 226 18,000  Level Salt Lake Center
Tue 02:05:38 PM 39.1614 -116.5014 226° Southwest 199 229 18,000  Level Salt Lake Center
Tue 02:06:40 PM 39.1261 -116.5472 225° Southwest 192 221 18,000  Level Salt Lake Center
Tue 02:07:42 PM 39.0847 -116.6061 228° Southwest 194 223 18,000  Level Salt Lake Center
Tue 02:08:44 PM 39.0522 -116.6500 226° Southwest 194 223 18,000  Level Salt Lake Center
Tue 02:09:46 PM 39.0036 -116.7128 225° Southwest 203 234 18,000  Level Salt Lake Center
Tue 02:10:48 PM 38.9653 -116.7636 226° Southwest 200 230 18,000  Level Salt Lake Center
Tue 02:11:50 PM 38.9267 -116.8150 226° Southwest 199 229 18,000  Level Salt Lake Center
Tue 02:12:52 PM 38.8878 -116.8681 227° Southwest 202 232 18,000 63 Level Salt Lake Center
Tue 02:13:25 PM 38.8636 -116.8992 225° Southwest 202 232 18,100  Climbing Oakland Center
Tue 02:14:26 PM 38.8247 -116.9475 224° Southwest 198 228 18,000 -49 Descending Oakland Center
Tue 02:15:28 PM 38.7844 -116.9978 224° Southwest 200 230 18,000  Level Oakland Center
Tue 02:16:29 PM 38.7436 -117.0503 225° Southwest 206 237 18,000  Level Oakland Center
Tue 02:17:31 PM 38.7061 -117.1019 227° Southwest 200 230 18,000  Level Oakland Center
Tue 02:18:02 PM 38.6853 -117.1325 229° Southwest 196 226 18,000  Level Salt Lake Center
Tue 02:19:04 PM 38.6500 -117.1817 227° Southwest 190 219 18,000  Level Salt Lake Center
Tue 02:20:06 PM 38.6144 -117.2294 226° Southwest 187 215 18,000  Level Salt Lake Center
Tue 02:21:09 PM 38.5778 -117.2764 225° Southwest 187 215 18,000  Level Salt Lake Center
Tue 02:22:10 PM 38.5333 -117.3319 224° Southwest 187 215 18,000  Level Salt Lake Center
Tue 02:23:12 PM 38.4972 -117.3792 226° Southwest 187 215 18,000  Level Salt Lake Center
Tue 02:24:14 PM 38.4608 -117.4258 225° Southwest 186 214 18,000  Level Salt Lake Center
Tue 02:25:16 PM 38.4253 -117.4728 226° Southwest 186 214 18,000  Level Salt Lake Center
Tue 02:26:18 PM 38.3892 -117.5197 226° Southwest 186 214 18,000  Level Salt Lake Center
Tue 02:27:20 PM 38.3528 -117.5669 226° Southwest 187 215 18,000  Level Salt Lake Center
Tue 02:28:23 PM 38.3097 -117.6219 225° Southwest 185 213 18,000  Level Salt Lake Center
Tue 02:29:50 PM 38.2589 -117.6872 225° Southwest 185 213 18,000  Level Oakland Center
Tue 02:30:52 PM 38.2219 -117.7336 225° Southwest 187 215 18,000  Level Oakland Center
Tue 02:31:53 PM 38.1853 -117.7806 225° Southwest 188 216 18,000  Level Oakland Center
Tue 02:32:55 PM 38.1486 -117.8258 224° Southwest 185 213 18,000  Level Oakland Center
Tue 02:33:56 PM 38.1128 -117.8719 225° Southwest 183 211 18,000  Level Oakland Center
Tue 02:34:58 PM 38.0700 -117.9278 226° Southwest 183 211 18,000  Level Oakland Center
Tue 02:35:59 PM 38.0344 -117.9744 226° Southwest 184 212 18,000  Level Oakland Center
Tue 02:37:01 PM 37.9983 -118.0197 225° Southwest 183 211 18,000  Level Oakland Center
Tue 02:38:03 PM 37.9619 -118.0653 225° Southwest 182 209 18,000  Level Oakland Center
Tue 02:39:04 PM 37.9269 -118.1103 225° Southwest 180 207 18,000  Level Oakland Center
Tue 02:40:06 PM 37.8903 -118.1539 223° Southwest 178 205 18,000  Level Oakland Center
Tue 02:41:49 PM 37.8303 -118.2317 226° Southwest 175 201 18,000  Level Los Angeles Center
Tue 02:42:51 PM 37.7953 -118.2758 225° Southwest 176 203 18,000  Level Los Angeles Center
Tue 02:43:53 PM 37.7606 -118.3225 227° Southwest 180 207 18,000  Level Los Angeles Center
Tue 02:45:14 PM 37.7092 -118.3858 224° Southwest 183 211 18,000  Level Oakland Center
Tue 02:46:15 PM 37.6725 -118.4306 224° Southwest 183 211 18,000  Level Oakland Center
Tue 02:47:17 PM 37.6381 -118.4775 227° Southwest 182 209 18,000  Level Oakland Center
Tue 02:48:18 PM 37.5994 -118.5225 223° Southwest 185 213 18,000  Level Oakland Center
Tue 02:49:20 PM 37.5639 -118.5681 225° Southwest 185 213 18,000  Level Oakland Center
Tue 02:50:21 PM 37.5272 -118.6133 224° Southwest 184 212 18,000  Level Oakland Center
Tue 02:51:23 PM 37.4833 -118.6672 224° Southwest 184 212 18,000  Level Oakland Center
Tue 02:52:24 PM 37.4464 -118.7122 224° Southwest 183 211 18,000  Level Oakland Center
Tue 02:53:26 PM 37.4075 -118.7567 222° Southwest 186 214 18,000  Level Oakland Center
Tue 02:54:27 PM 37.3664 -118.7864 210° Southwest 180 207 18,000  Level Oakland Center
Tue 02:55:29 PM 37.3122 -118.7961 188° South 187 215 18,000  Level Oakland Center
Tue 02:56:30 PM 37.2625 -118.8064 189° South 184 212 18,000  Level Oakland Center
Tue 02:57:32 PM 37.2119 -118.8147 187° South 183 211 18,000  Level Oakland Center
Tue 02:58:33 PM 37.1617 -118.8233 188° South 183 211 18,000 49 Level Oakland Center
Tue 02:59:35 PM 37.1117 -118.8314 187° South 182 209 18,100 390 Climbing Oakland Center
Tue 03:00:36 PM 37.0678 -118.8358 185° South 164 189 18,800 439 Climbing Oakland Center
Tue 03:01:38 PM 37.0161 -118.8453 188° South 158 182 19,000 98 Climbing Oakland Center
Tue 03:02:39 PM 36.9708 -118.8536 188° South 163 188 19,000  Level Oakland Center
Tue 03:03:40 PM 36.9222 -118.8661 192° South 174 200 19,000  Level Oakland Center
Tue 03:04:42 PM 36.8719 -118.8708 184° South 179 206 19,000  Level Oakland Center
Tue 03:05:43 PM 36.8236 -118.8764 185° South 177 204 19,000  Level Oakland Center
Tue 03:06:45 PM 36.7764 -118.8881 191° South 174 200 19,000  Level Oakland Center
Tue 03:07:46 PM 36.7289 -118.8964 188° South 172 198 19,000  Level Oakland Center
Tue 03:08:48 PM 36.6814 -118.9058 189° South 173 199 19,000  Level Oakland Center
Tue 03:09:49 PM 36.6328 -118.9131 187° South 174 200 19,000  Level Oakland Center
Tue 03:10:51 PM 36.5761 -118.9219 187° South 172 198 19,000  Level Oakland Center
Tue 03:11:52 PM 36.5275 -118.9300 188° South 174 200 19,000  Level Oakland Center
Tue 03:12:54 PM 36.4797 -118.9353 185° South 172 198 19,000  Level Oakland Center
Tue 03:13:55 PM 36.4328 -118.9450 189° South 171 197 19,000  Level Oakland Center
Tue 03:14:57 PM 36.3817 -118.9522 186° South 180 207 19,000  Level Oakland Center
Tue 03:15:58 PM 36.3314 -118.9603 187° South 181 208 19,000  Level Oakland Center
Tue 03:17:00 PM 36.2814 -118.9681 187° South 181 208 19,000  Level Oakland Center
Tue 03:18:01 PM 36.2303 -118.9761 187° South 183 211 19,000  Level Oakland Center
Tue 03:19:03 PM 36.1711 -118.9861 188° South 180 207 19,000  Level Oakland Center
Tue 03:20:04 PM 36.1206 -118.9953 188° South 182 209 19,000  Level Oakland Center
Tue 03:21:07 PM 36.0769 -119.0206 205° Southwest 179 206 19,000  Level Los Angeles Center
Tue 03:22:09 PM 36.0344 -119.0550 213° Southwest 181 208 19,000  Level Los Angeles Center
Tue 03:23:11 PM 35.9919 -119.0900 214° Southwest 184 212 19,000  Level Los Angeles Center
Tue 03:24:13 PM 35.9481 -119.1219 211° Southwest 183 211 19,000  Level Los Angeles Center
Tue 03:25:15 PM 35.8942 -119.1597 210° Southwest 186 214 19,000  Level Los Angeles Center
Tue 03:26:13 PM 35.8583 -119.1839 209° Southwest 184 212 19,000  Level Oakland Center
Tue 03:27:15 PM 35.8047 -119.2181 207° Southwest 182 209 19,000  Level Oakland Center
Tue 03:28:20 PM 35.7606 -119.2492 210° Southwest 183 211 19,000  Level Los Angeles Center
Tue 03:29:22 PM 35.7167 -119.2797 209° Southwest 181 208 19,000  Level Los Angeles Center
Tue 03:30:24 PM 35.6806 -119.3050 210° Southwest 183 211 19,000  Level Los Angeles Center
Tue 03:31:26 PM 35.6269 -119.3425 210° Southwest 184 212 19,000  Level Los Angeles Center
Tue 03:32:28 PM 35.5736 -119.3806 210° Southwest 183 211 19,000  Level Los Angeles Center
Tue 03:33:29 PM 35.5283 -119.4111 209° Southwest 184 212 19,000  Level Los Angeles Center
Tue 03:34:31 PM 35.4842 -119.4414 209° Southwest 182 209 19,000  Level Los Angeles Center
Tue 03:35:33 PM 35.4394 -119.4728 210° Southwest 183 211 19,000  Level Los Angeles Center
Tue 03:36:35 PM 35.3950 -119.5042 210° Southwest 184 212 19,000  Level Los Angeles Center
Tue 03:37:37 PM 35.3506 -119.5344 209° Southwest 183 211 19,000  Level Los Angeles Center
Tue 03:38:38 PM 35.3061 -119.5653 210° Southwest 182 209 19,000 -244 Level Los Angeles Center
Tue 03:39:40 PM 35.2500 -119.6017 208° Southwest 187 215 18,500 -484 Descending Los Angeles Center
Tue 03:40:42 PM 35.1983 -119.6381 210° Southwest 208 239 18,000 -726 Descending Los Angeles Center
Tue 03:41:44 PM 35.1475 -119.6750 211° Southwest 212 244 17,000 -871 Descending Los Angeles Center
Tue 03:42:46 PM 35.0944 -119.7100 208° Southwest 215 247 16,200 -726 Descending Los Angeles Center
Tue 03:43:48 PM 35.0414 -119.7456 209° Southwest 216 249 15,500 -761 Descending Los Angeles Center
Tue 03:45:00 PM 34.9750 -119.7933 211° Southwest 211 243 14,500 -774 Descending Los Angeles Center
Tue 03:45:52 PM 34.9364 -119.8081 197° South 213 245 13,900 -895 Descending Los Angeles Center
Tue 03:46:54 PM 34.8656 -119.8089 181° South 215 247 12,800 -919 Descending Los Angeles Center
Tue 03:47:56 PM 34.8064 -119.8072 179° South 212 244 12,000 -836 Descending Los Angeles Center
Tue 03:48:56 PM 34.7444 -119.8056 179° South 208 239 11,100 -793 Descending Los Angeles Center
Tue 03:49:57 PM 34.6903 -119.8047 179° South 204 235 10,400 -714 Descending Los Angeles Center
Tue 03:51:02 PM 34.6353 -119.8031 179° South 201 231 9,600 -793 Descending Los Angeles Center
Tue 03:51:58 PM 34.5786 -119.7992 177° South 200 230 8,800 -1,345 Descending Los Angeles Center
Tue 03:52:58 PM 34.5244 -119.7881 170° South 186 214 7,000 -1,767 Descending Los Angeles Center
Tue 03:54:07 PM 34.4708 -119.7761 170° South 185 213 5,000 -1,672 Descending Los Angeles Center
Tue 03:55:00 PM 34.4367 -119.7722 175° South 139 160 3,600 -1,540 Descending Los Angeles Center
Tue 03:56:00 PM 34.4053 -119.7875 202° Southwest 130 150 2,100 -1,388 Descending Los Angeles Center
Tue 03:57:01 PM 34.4219 -119.8133 308° West 116 133 800 -1,279 Descending Los Angeles Center
Tue 03:59:00 PM 34.4167 -119.8333 192° South  Level FlightAware Approximate

Login

Don't have an account? Register now (free) for customized features, flight alerts, and more!